Terminal Aerodrome Forecast
Issued by NWS Quad Cities IA IL

Home | Current Version | Previous Version | Text Only | Print | Product List | Glossary On
Versions: 1 2 3 4 5 6 7 8 9 10 11 12 13 14 15 16 17 18 19 20 21 22 23 24
000
FTUS43 KDVN 190100 AAA
TAFDBQ
TAF AMD
KDBQ 190101Z 1901/1924 00000KT P6SM SCT020 BKN090
      TEMPO 1901/1904 BKN020
     FM191700 16004KT P6SM OVC200=

USA.gov is the U.S. government's official web portal to all federal, state and local government web resources and services.